createdAt,value
2023-04-27T00:00:49.959Z,4.90
2023-04-27T00:01:49.985Z,4.80
2023-04-27T00:02:50.044Z,5.10
2023-04-27T00:03:50.036Z,4.80
2023-04-27T00:04:50.056Z,4.50
2023-04-27T00:05:50.001Z,4.30
2023-04-27T00:06:49.900Z,4.50
2023-04-27T00:07:49.868Z,4.20
2023-04-27T00:08:49.827Z,4.60
2023-04-27T00:09:49.813Z,4.30
2023-04-27T00:10:49.864Z,4.00
2023-04-27T00:11:49.833Z,4.10
2023-04-27T00:12:49.825Z,4.40
2023-04-27T00:13:49.757Z,4.20
2023-04-27T00:14:49.785Z,4.20
2023-04-27T00:15:49.752Z,3.90
2023-04-27T00:16:49.817Z,4.70
2023-04-27T00:17:49.769Z,4.80
2023-04-27T00:18:49.724Z,4.80
2023-04-27T00:19:49.695Z,4.50
2023-04-27T00:20:49.720Z,4.20
2023-04-27T00:21:49.655Z,4.60
2023-04-27T00:22:49.713Z,4.10
2023-04-27T00:23:49.714Z,4.90
2023-04-27T00:24:49.668Z,4.40
2023-04-27T00:25:49.616Z,4.40
2023-04-27T00:26:49.682Z,4.40
2023-04-27T00:27:49.639Z,5.10
2023-04-27T00:28:49.627Z,4.70
2023-04-27T00:29:49.579Z,5.30
2023-04-27T00:30:49.581Z,5.80
2023-04-27T00:31:49.612Z,6.10
2023-04-27T00:32:49.588Z,5.20
2023-04-27T00:33:49.525Z,6.00
2023-04-27T00:34:49.563Z,7.60
2023-04-27T00:35:49.537Z,6.40
2023-04-27T00:36:49.512Z,6.40
2023-04-27T00:37:49.470Z,5.70
2023-04-27T00:38:49.487Z,6.90
2023-04-27T00:39:49.546Z,6.50
2023-04-27T00:40:49.458Z,5.80
2023-04-27T00:41:49.450Z,5.90
2023-04-27T00:42:49.454Z,6.20
2023-04-27T00:43:49.400Z,6.20
2023-04-27T00:44:49.445Z,6.00
2023-04-27T00:45:49.476Z,5.90
2023-04-27T00:46:49.454Z,5.40
2023-04-27T00:47:49.430Z,5.30
2023-04-27T00:48:49.403Z,5.60
2023-04-27T00:49:49.352Z,5.70
2023-04-27T00:50:49.360Z,5.50
2023-04-27T00:51:49.340Z,4.80
2023-04-27T00:52:49.354Z,5.20
2023-04-27T00:53:49.315Z,5.00
2023-04-27T00:54:49.353Z,4.50
2023-04-27T00:55:49.300Z,5.60
2023-04-27T00:56:49.354Z,4.70
2023-04-27T00:57:49.276Z,5.00
2023-04-27T00:58:49.293Z,6.00
2023-04-27T00:59:49.268Z,5.40
2023-04-27T01:00:49.328Z,4.90
2023-04-27T01:01:49.441Z,4.80
2023-04-27T01:02:49.470Z,4.40
2023-04-27T01:03:49.316Z,4.60
2023-04-27T01:04:49.225Z,4.80
2023-04-27T01:05:49.194Z,5.20
2023-04-27T01:06:49.184Z,4.90
2023-04-27T01:07:49.125Z,5.20
2023-04-27T01:08:49.149Z,4.10
2023-04-27T01:09:49.110Z,4.20
2023-04-27T01:10:49.095Z,4.70
2023-04-27T01:11:49.063Z,4.00
2023-04-27T01:12:49.081Z,4.20
2023-04-27T01:13:49.037Z,4.10
2023-04-27T01:14:49.059Z,4.30
2023-04-27T01:15:49.027Z,3.80
2023-04-27T01:16:49.101Z,4.30
2023-04-27T01:17:49.054Z,3.90
2023-04-27T01:18:49.012Z,3.80
2023-04-27T01:19:48.966Z,4.00
2023-04-27T01:20:48.978Z,4.10
2023-04-27T01:21:48.944Z,4.00
2023-04-27T01:22:48.977Z,4.20
2023-04-27T01:23:48.919Z,4.30
2023-04-27T01:24:48.912Z,3.90
2023-04-27T01:25:48.930Z,4.30
2023-04-27T01:26:48.913Z,4.00
2023-04-27T01:27:48.911Z,4.00
2023-04-27T01:28:48.857Z,4.10
2023-04-27T01:29:48.917Z,4.00
2023-04-27T01:30:48.864Z,5.00
2023-04-27T01:31:48.905Z,4.10
2023-04-27T01:32:48.838Z,3.80
2023-04-27T01:33:48.835Z,3.90
2023-04-27T01:34:48.809Z,4.20
2023-04-27T01:35:48.822Z,4.30
2023-04-27T01:36:48.779Z,3.90
2023-04-27T01:37:48.809Z,4.40
2023-04-27T01:38:48.750Z,4.10
2023-04-27T01:39:48.771Z,4.10
2023-04-27T01:40:48.726Z,4.20
2023-04-27T01:41:48.741Z,4.10
2023-04-27T01:42:48.820Z,4.00
2023-04-27T01:43:48.725Z,3.80
2023-04-27T01:44:48.693Z,4.00
2023-04-27T01:45:48.799Z,3.80
2023-04-27T01:46:48.731Z,3.70
2023-04-27T01:47:48.689Z,3.90
2023-04-27T01:48:48.642Z,4.00
2023-04-27T01:49:48.638Z,4.20
2023-04-27T01:50:48.709Z,3.80
2023-04-27T01:51:48.650Z,4.30
2023-04-27T01:52:48.610Z,4.00
2023-04-27T01:53:48.607Z,4.30
2023-04-27T01:54:48.563Z,3.90
2023-04-27T01:55:48.574Z,3.70
2023-04-27T01:56:48.561Z,3.90
2023-04-27T01:57:48.557Z,3.60
2023-04-27T01:58:48.711Z,4.00
2023-04-27T01:59:48.543Z,4.00
2023-04-27T02:00:48.498Z,4.10
2023-04-27T02:01:48.577Z,4.10
2023-04-27T02:02:48.593Z,4.10
2023-04-27T02:03:48.612Z,4.10
2023-04-27T02:04:48.482Z,3.80
2023-04-27T02:05:48.481Z,4.40
2023-04-27T02:06:48.667Z,3.80
2023-04-27T02:07:48.488Z,4.00
2023-04-27T02:08:48.429Z,4.20
2023-04-27T02:09:48.480Z,3.70
2023-04-27T02:10:48.443Z,4.50
2023-04-27T02:11:48.469Z,3.80
2023-04-27T02:12:48.396Z,4.10
2023-04-27T02:13:48.415Z,3.60
2023-04-27T02:14:48.392Z,4.20
2023-04-27T02:15:48.461Z,4.10
2023-04-27T02:16:48.356Z,3.90
2023-04-27T02:17:48.424Z,4.30
2023-04-27T02:18:48.373Z,4.30
2023-04-27T02:19:48.367Z,4.10
2023-04-27T02:20:48.324Z,4.60
2023-04-27T02:21:48.299Z,4.10
2023-04-27T02:22:48.303Z,3.70
2023-04-27T02:23:48.321Z,4.10
2023-04-27T02:24:48.291Z,4.10
2023-04-27T02:25:48.282Z,4.10
2023-04-27T02:26:48.290Z,4.20
2023-04-27T02:27:48.261Z,4.20
2023-04-27T02:28:48.221Z,4.30
2023-04-27T02:29:48.269Z,4.10
2023-04-27T02:30:48.207Z,4.70
2023-04-27T02:31:48.240Z,4.40
2023-04-27T02:32:48.241Z,4.10
2023-04-27T02:33:48.223Z,4.30
2023-04-27T02:34:48.144Z,4.50
2023-04-27T02:35:48.200Z,4.60
2023-04-27T02:36:48.167Z,4.20
2023-04-27T02:37:48.166Z,4.30
2023-04-27T02:38:48.110Z,4.50
2023-04-27T02:39:48.128Z,4.70
2023-04-27T02:40:48.104Z,4.40
2023-04-27T02:41:48.124Z,4.10
2023-04-27T02:42:48.300Z,4.50
2023-04-27T02:43:48.101Z,4.20
2023-04-27T02:44:48.044Z,4.60
2023-04-27T02:45:48.039Z,4.40
2023-04-27T02:46:48.559Z,4.20
2023-04-27T02:47:48.167Z,5.00
2023-04-27T02:48:48.035Z,4.60
2023-04-27T02:49:48.050Z,4.20
2023-04-27T02:50:48.024Z,4.70
2023-04-27T02:51:48.017Z,4.40
2023-04-27T02:52:48.008Z,4.70
2023-04-27T02:53:47.987Z,4.60
2023-04-27T02:54:47.960Z,4.70
2023-04-27T02:55:47.924Z,5.00
2023-04-27T02:56:47.872Z,4.70
2023-04-27T02:57:47.966Z,4.70
2023-04-27T02:58:47.872Z,4.60
2023-04-27T02:59:47.877Z,4.40
2023-04-27T03:00:48.953Z,4.80
2023-04-27T03:01:47.853Z,4.20
2023-04-27T03:02:48.003Z,5.20
2023-04-27T03:03:48.115Z,4.80
2023-04-27T03:04:47.882Z,4.70
2023-04-27T03:05:47.831Z,4.70
2023-04-27T03:06:47.803Z,4.50
2023-04-27T03:07:47.838Z,4.70
2023-04-27T03:08:47.790Z,5.20
2023-04-27T03:09:47.796Z,5.20
2023-04-27T03:10:47.717Z,5.10
2023-04-27T03:11:47.768Z,5.20
2023-04-27T03:12:47.752Z,5.10
2023-04-27T03:13:47.777Z,4.80
2023-04-27T03:14:47.721Z,4.70
2023-04-27T03:15:47.781Z,5.00
2023-04-27T03:16:47.782Z,5.10
2023-04-27T03:17:47.744Z,5.10
2023-04-27T03:18:47.673Z,4.50
2023-04-27T03:19:47.678Z,5.20
2023-04-27T03:20:47.649Z,4.60
2023-04-27T03:21:48.636Z,5.10
2023-04-27T03:22:47.585Z,5.00
2023-04-27T03:23:47.606Z,4.90
2023-04-27T03:24:47.596Z,4.70
2023-04-27T03:25:47.951Z,4.60
2023-04-27T03:26:47.592Z,4.90
2023-04-27T03:27:47.589Z,4.90
2023-04-27T03:28:47.541Z,4.70
2023-04-27T03:29:47.575Z,4.70
2023-04-27T03:30:47.514Z,4.80
2023-04-27T03:31:47.582Z,5.20
2023-04-27T03:32:47.862Z,5.10
2023-04-27T03:33:47.562Z,5.70
2023-04-27T03:34:47.465Z,5.20
2023-04-27T03:35:47.537Z,5.10
2023-04-27T03:36:47.454Z,5.10
2023-04-27T03:37:47.461Z,5.50
2023-04-27T03:38:47.434Z,4.50
2023-04-27T03:39:47.429Z,4.90
2023-04-27T03:40:47.459Z,5.20
2023-04-27T03:41:47.419Z,4.90
2023-04-27T03:42:47.402Z,5.10
2023-04-27T03:43:47.369Z,4.90
2023-04-27T03:44:47.361Z,4.70
2023-04-27T03:45:47.582Z,5.20
2023-04-27T03:46:47.398Z,4.90
2023-04-27T03:47:47.922Z,5.00
2023-04-27T03:48:47.339Z,5.30
2023-04-27T03:49:47.342Z,5.40
2023-04-27T03:50:47.291Z,4.90
2023-04-27T03:51:47.304Z,5.50
2023-04-27T03:52:47.269Z,5.60
2023-04-27T03:53:47.318Z,5.40
2023-04-27T03:54:47.247Z,5.30
2023-04-27T03:55:47.251Z,5.00
2023-04-27T03:56:47.247Z,4.90
2023-04-27T03:57:47.221Z,4.80
2023-04-27T03:58:47.241Z,5.40
2023-04-27T03:59:47.202Z,5.20
2023-04-27T04:00:47.185Z,5.20
2023-04-27T04:01:47.200Z,5.40
2023-04-27T04:02:47.400Z,5.10
2023-04-27T04:03:47.300Z,5.00
2023-04-27T04:04:47.234Z,5.00
2023-04-27T04:05:47.312Z,5.40
2023-04-27T04:06:47.105Z,5.10
2023-04-27T04:07:47.125Z,4.80
2023-04-27T04:08:47.095Z,5.60
2023-04-27T04:09:47.138Z,5.30
2023-04-27T04:10:47.072Z,5.90
2023-04-27T04:11:47.074Z,5.00
2023-04-27T04:12:47.060Z,5.50
2023-04-27T04:13:47.029Z,5.90
2023-04-27T04:14:47.066Z,5.70
2023-04-27T04:15:47.039Z,5.40
2023-04-27T04:16:47.057Z,5.50
2023-04-27T04:17:47.087Z,5.90
2023-04-27T04:18:47.055Z,5.40
2023-04-27T04:19:47.030Z,5.50
2023-04-27T04:20:46.944Z,5.40
2023-04-27T04:21:46.961Z,5.50
2023-04-27T04:22:46.956Z,5.90
2023-04-27T04:23:46.970Z,6.20
2023-04-27T04:24:46.962Z,5.80
2023-04-27T04:25:46.965Z,5.70
2023-04-27T04:26:46.938Z,5.60
2023-04-27T04:27:46.945Z,5.10
2023-04-27T04:28:46.899Z,5.60
2023-04-27T04:29:46.910Z,5.80
2023-04-27T04:30:46.867Z,6.10
2023-04-27T04:31:46.897Z,5.50
2023-04-27T04:32:46.850Z,6.00
2023-04-27T04:33:46.862Z,5.80
2023-04-27T04:34:46.822Z,6.20
2023-04-27T04:35:46.810Z,5.90
2023-04-27T04:36:46.903Z,5.80
2023-04-27T04:37:46.818Z,5.60
2023-04-27T04:38:46.814Z,5.50
2023-04-27T04:39:46.843Z,5.60
2023-04-27T04:40:46.822Z,6.10
2023-04-27T04:41:46.795Z,5.70
2023-04-27T04:42:46.779Z,5.60
2023-04-27T04:43:46.838Z,6.00
2023-04-27T04:44:46.709Z,5.70
2023-04-27T04:45:46.700Z,5.40
2023-04-27T04:46:46.724Z,5.60
2023-04-27T04:47:46.819Z,5.40
2023-04-27T04:48:46.702Z,5.50
2023-04-27T04:49:46.716Z,5.90
2023-04-27T04:50:46.679Z,5.70
2023-04-27T04:51:46.669Z,5.90
2023-04-27T04:52:46.660Z,6.00
2023-04-27T04:53:46.628Z,5.50
2023-04-27T04:54:46.590Z,5.70
2023-04-27T04:55:46.610Z,5.50
2023-04-27T04:56:46.615Z,5.80
2023-04-27T04:57:46.610Z,5.70
2023-04-27T04:58:46.624Z,5.50
2023-04-27T04:59:46.629Z,6.40
2023-04-27T05:00:46.764Z,5.80
2023-04-27T05:01:46.599Z,6.40
2023-04-27T05:02:46.750Z,6.10
2023-04-27T05:03:46.670Z,6.20
2023-04-27T05:04:46.687Z,5.90
2023-04-27T05:05:46.566Z,5.30
2023-04-27T05:06:46.467Z,5.60
2023-04-27T05:07:46.494Z,6.00
2023-04-27T05:08:46.467Z,5.80
2023-04-27T05:09:46.501Z,6.20
2023-04-27T05:10:46.424Z,5.80
2023-04-27T05:11:46.449Z,5.50
2023-04-27T05:12:46.371Z,5.90
2023-04-27T05:13:46.392Z,5.60
2023-04-27T05:14:46.353Z,5.70
2023-04-27T05:15:46.410Z,5.90
2023-04-27T05:16:46.418Z,5.60
2023-04-27T05:17:46.522Z,5.80
2023-04-27T05:18:46.362Z,5.80
2023-04-27T05:19:46.341Z,5.80
2023-04-27T05:20:46.321Z,5.60
2023-04-27T05:21:46.406Z,5.80
2023-04-27T05:22:46.337Z,6.20
2023-04-27T05:23:46.345Z,5.60
2023-04-27T05:24:46.318Z,5.90
2023-04-27T05:25:46.309Z,5.90
2023-04-27T05:26:46.235Z,5.50
2023-04-27T05:27:46.345Z,5.90
2023-04-27T05:28:46.287Z,6.00
2023-04-27T05:29:46.201Z,6.20
2023-04-27T05:30:46.204Z,5.90
2023-04-27T05:31:46.331Z,6.30
2023-04-27T05:32:46.282Z,6.20
2023-04-27T05:33:46.214Z,5.80
2023-04-27T05:34:48.757Z,5.50
2023-04-27T05:35:46.238Z,6.00
2023-04-27T05:36:46.145Z,5.70
2023-04-27T05:37:46.166Z,6.20
2023-04-27T05:38:46.131Z,6.50
2023-04-27T05:39:46.110Z,6.60
2023-04-27T05:40:46.105Z,6.40
2023-04-27T05:41:46.069Z,6.60
2023-04-27T05:42:46.143Z,6.40
2023-04-27T05:43:46.036Z,6.40
2023-04-27T05:44:46.142Z,6.20
2023-04-27T05:45:46.047Z,5.70
2023-04-27T05:46:46.021Z,6.30
2023-04-27T05:47:46.061Z,6.60
2023-04-27T05:48:46.018Z,6.20
2023-04-27T05:49:46.002Z,6.40
2023-04-27T05:50:46.811Z,6.80
2023-04-27T05:51:45.948Z,6.60
2023-04-27T05:52:45.956Z,7.60
2023-04-27T05:53:45.951Z,7.00
2023-04-27T05:54:45.987Z,6.60
2023-04-27T05:55:45.936Z,6.40
2023-04-27T05:56:45.909Z,7.10
2023-04-27T05:57:47.728Z,6.70
2023-04-27T05:58:46.905Z,6.00
2023-04-27T05:59:45.864Z,5.90
2023-04-27T06:00:45.882Z,6.30
2023-04-27T06:01:45.883Z,6.00
2023-04-27T06:02:45.956Z,5.90
2023-04-27T06:03:46.024Z,5.80
2023-04-27T06:04:45.840Z,6.30
2023-04-27T06:05:46.034Z,6.30
2023-04-27T06:06:45.835Z,5.90
2023-04-27T06:07:45.760Z,6.30
2023-04-27T06:08:45.778Z,6.20
2023-04-27T06:09:45.730Z,5.50
2023-04-27T06:10:45.889Z,6.30
2023-04-27T06:11:45.732Z,6.40
2023-04-27T06:12:46.462Z,5.90
2023-04-27T06:13:45.673Z,6.10
2023-04-27T06:14:45.670Z,6.30
2023-04-27T06:15:45.727Z,5.70
2023-04-27T06:16:45.652Z,6.10
2023-04-27T06:17:45.656Z,6.30
2023-04-27T06:18:45.640Z,6.60
2023-04-27T06:19:45.604Z,6.10
2023-04-27T06:20:45.610Z,6.50
2023-04-27T06:21:45.581Z,5.80
2023-04-27T06:22:45.587Z,6.30
2023-04-27T06:23:46.442Z,5.70
2023-04-27T06:24:45.589Z,5.70
2023-04-27T06:25:45.559Z,5.80
2023-04-27T06:26:45.668Z,6.20
2023-04-27T06:27:45.555Z,6.10
2023-04-27T06:28:45.529Z,5.70
2023-04-27T06:29:45.532Z,5.90
2023-04-27T06:30:45.507Z,6.10
2023-04-27T06:31:45.557Z,5.40
2023-04-27T06:32:45.583Z,6.30
2023-04-27T06:33:45.447Z,6.00
2023-04-27T06:34:45.501Z,6.20
2023-04-27T06:35:47.462Z,5.60
2023-04-27T06:36:45.416Z,6.50
2023-04-27T06:37:45.397Z,5.60
2023-04-27T06:38:45.465Z,6.00
2023-04-27T06:39:46.754Z,6.30
2023-04-27T06:40:46.102Z,6.50
2023-04-27T06:41:45.565Z,6.50
2023-04-27T06:42:45.453Z,5.50
2023-04-27T06:43:45.384Z,6.00
2023-04-27T06:44:45.365Z,6.10
2023-04-27T06:45:45.348Z,5.80
2023-04-27T06:46:45.348Z,5.70
2023-04-27T06:47:45.348Z,6.10
2023-04-27T06:48:45.317Z,6.20
2023-04-27T06:49:45.256Z,6.10
2023-04-27T06:50:45.285Z,6.00
2023-04-27T06:51:45.380Z,5.70
2023-04-27T06:52:45.242Z,6.50
2023-04-27T06:53:45.234Z,5.50
2023-04-27T06:54:45.402Z,5.90
2023-04-27T06:55:47.563Z,5.60
2023-04-27T06:56:45.206Z,5.80
2023-04-27T06:57:45.200Z,6.10
2023-04-27T06:58:45.175Z,6.10
2023-04-27T06:59:45.206Z,6.00
2023-04-27T07:00:45.228Z,5.80
2023-04-27T07:01:45.465Z,5.60
2023-04-27T07:02:45.251Z,6.10
2023-04-27T07:03:45.290Z,6.10
2023-04-27T07:04:45.164Z,6.30
2023-04-27T07:05:45.224Z,5.90
2023-04-27T07:06:45.158Z,5.60
2023-04-27T07:07:45.086Z,5.80
2023-04-27T07:08:45.278Z,5.80
2023-04-27T07:09:45.031Z,5.70
2023-04-27T07:10:45.139Z,6.40
2023-04-27T07:11:45.040Z,5.40
2023-04-27T07:12:45.046Z,6.10
2023-04-27T07:13:45.008Z,5.80
2023-04-27T07:14:45.030Z,6.50
2023-04-27T07:15:45.072Z,6.30
2023-04-27T07:16:45.014Z,6.00
2023-04-27T07:17:45.077Z,5.60
2023-04-27T07:18:45.055Z,5.40
2023-04-27T07:19:44.930Z,5.40
2023-04-27T07:20:44.980Z,5.50
2023-04-27T07:21:44.919Z,6.00
2023-04-27T07:22:44.915Z,5.70
2023-04-27T07:23:44.904Z,6.20
2023-04-27T07:24:44.915Z,5.80
2023-04-27T07:25:44.872Z,5.60
2023-04-27T07:26:44.894Z,5.60
2023-04-27T07:27:44.901Z,5.00
2023-04-27T07:28:44.854Z,5.60
2023-04-27T07:29:44.841Z,5.50
2023-04-27T07:30:44.896Z,5.70
2023-04-27T07:31:44.886Z,6.00
2023-04-27T07:32:45.275Z,6.30
2023-04-27T07:33:45.328Z,6.10
2023-04-27T07:34:52.822Z,5.40
2023-04-27T07:35:45.766Z,5.60
2023-04-27T07:36:44.801Z,5.70
2023-04-27T07:37:44.880Z,5.60
2023-04-27T07:38:44.774Z,5.80
2023-04-27T07:39:44.741Z,5.70
2023-04-27T07:40:44.871Z,5.80
2023-04-27T07:41:44.690Z,5.50
2023-04-27T07:42:44.722Z,5.70
2023-04-27T07:43:44.688Z,5.70
2023-04-27T07:44:44.687Z,5.40
2023-04-27T07:45:44.743Z,6.00
2023-04-27T07:46:44.626Z,5.70
2023-04-27T07:47:44.764Z,6.00
2023-04-27T07:48:44.647Z,5.70
2023-04-27T07:49:44.621Z,6.60
2023-04-27T07:50:44.638Z,5.60
2023-04-27T07:51:44.594Z,5.30
2023-04-27T07:52:44.551Z,5.40
2023-04-27T07:53:47.283Z,5.30
2023-04-27T07:54:44.595Z,5.00
2023-04-27T07:55:44.551Z,5.00
2023-04-27T07:56:44.578Z,5.20
2023-04-27T07:57:44.536Z,5.80
2023-04-27T07:58:44.560Z,5.60
2023-04-27T07:59:44.494Z,5.70
2023-04-27T08:00:44.581Z,5.60
2023-04-27T08:01:44.587Z,5.60
2023-04-27T08:02:44.796Z,5.60
2023-04-27T08:03:44.676Z,6.00
2023-04-27T08:04:45.022Z,5.50
2023-04-27T08:05:44.793Z,6.10
2023-04-27T08:06:44.796Z,6.40
2023-04-27T08:07:45.377Z,5.80
2023-04-27T08:08:44.411Z,5.40
2023-04-27T08:09:44.422Z,5.70
2023-04-27T08:10:44.393Z,5.70
2023-04-27T08:11:44.414Z,5.50
2023-04-27T08:12:44.365Z,5.80
2023-04-27T08:13:45.109Z,5.80
2023-04-27T08:14:44.370Z,5.40
2023-04-27T08:15:44.390Z,5.90
2023-04-27T08:16:44.319Z,5.80
2023-04-27T08:17:44.379Z,5.50
2023-04-27T08:18:44.290Z,5.50
2023-04-27T08:19:44.253Z,5.70
2023-04-27T08:20:44.256Z,5.40
2023-04-27T08:21:44.275Z,5.90
2023-04-27T08:22:44.276Z,5.50
2023-04-27T08:23:44.227Z,5.80
2023-04-27T08:24:44.249Z,6.00
2023-04-27T08:25:44.175Z,5.90
2023-04-27T08:26:44.202Z,5.50
2023-04-27T08:27:44.928Z,5.70
2023-04-27T08:28:44.185Z,5.70
2023-04-27T08:29:44.205Z,5.30
2023-04-27T08:30:44.172Z,5.40
2023-04-27T08:31:44.258Z,5.20
2023-04-27T08:32:44.232Z,5.90
2023-04-27T08:33:44.166Z,5.60
2023-04-27T08:34:44.166Z,5.80
2023-04-27T08:35:44.071Z,5.80
2023-04-27T08:36:44.108Z,5.60
2023-04-27T08:37:44.060Z,5.20
2023-04-27T08:38:44.107Z,5.50
2023-04-27T08:39:44.065Z,5.70
2023-04-27T08:40:44.108Z,5.70
2023-04-27T08:41:44.108Z,5.40
2023-04-27T08:42:44.021Z,5.90
2023-04-27T08:43:44.054Z,5.80
2023-04-27T08:44:44.034Z,5.70
2023-04-27T08:45:43.995Z,5.70
2023-04-27T08:46:44.015Z,5.50
2023-04-27T08:47:44.216Z,5.60
2023-04-27T08:48:43.986Z,5.50
2023-04-27T08:49:43.914Z,5.60
2023-04-27T08:50:43.989Z,5.40
2023-04-27T08:51:43.913Z,5.60
2023-04-27T08:52:43.870Z,5.70
2023-04-27T08:53:43.927Z,5.90
2023-04-27T08:54:43.969Z,5.60
2023-04-27T08:55:43.898Z,6.30
2023-04-27T08:56:43.868Z,6.10
2023-04-27T08:57:43.821Z,5.80
2023-04-27T08:58:43.829Z,6.00
2023-04-27T08:59:43.831Z,5.50
2023-04-27T09:00:43.823Z,5.80
2023-04-27T09:01:43.842Z,5.60
2023-04-27T09:02:43.891Z,5.50
2023-04-27T09:03:43.851Z,5.80
2023-04-27T09:04:43.784Z,5.60
2023-04-27T09:05:52.723Z,5.60
2023-04-27T09:06:44.741Z,6.00
2023-04-27T09:07:43.719Z,5.90
2023-04-27T09:08:43.761Z,5.60
2023-04-27T09:09:43.737Z,5.60
2023-04-27T09:10:43.715Z,5.60
2023-04-27T09:11:43.652Z,5.20
2023-04-27T09:12:43.682Z,5.50
2023-04-27T09:13:44.462Z,5.70
2023-04-27T09:14:44.360Z,5.60
2023-04-27T09:15:45.068Z,5.60
2023-04-27T09:16:43.705Z,5.90
2023-04-27T09:17:43.623Z,5.50
2023-04-27T09:18:44.508Z,5.70
2023-04-27T09:19:43.571Z,5.50
2023-04-27T09:20:43.615Z,6.50
2023-04-27T09:21:44.167Z,5.60
2023-04-27T09:22:43.530Z,5.90
2023-04-27T09:23:43.519Z,6.10
2023-04-27T09:24:43.596Z,6.40
2023-04-27T09:25:43.500Z,5.60
2023-04-27T09:26:43.513Z,5.70
2023-04-27T09:33:41.077Z,6.40
2023-04-27T09:34:41.260Z,6.20
2023-04-27T09:35:41.064Z,5.80
2023-04-27T09:36:41.029Z,5.60
2023-04-27T09:37:41.041Z,6.00
2023-04-27T09:38:41.003Z,6.40
2023-04-27T09:39:41.053Z,5.40
2023-04-27T09:40:40.981Z,5.60
2023-04-27T09:41:40.991Z,5.40
2023-04-27T09:42:40.955Z,5.60
2023-04-27T09:46:03.754Z,5.40
2023-04-27T09:47:03.711Z,5.30
2023-04-27T09:48:03.718Z,5.90
2023-04-27T09:49:03.707Z,6.00
2023-04-27T09:50:03.699Z,5.40
2023-04-27T09:51:03.676Z,5.90
2023-04-27T09:52:03.685Z,5.80
2023-04-27T09:53:03.639Z,6.30
2023-04-27T09:54:03.653Z,5.80
2023-04-27T09:55:03.664Z,5.20
2023-04-27T09:56:04.395Z,5.60
2023-04-27T09:57:03.690Z,5.10
2023-04-27T09:58:03.651Z,5.60
2023-04-27T09:59:03.872Z,5.60
2023-04-27T10:00:03.589Z,5.50
2023-04-27T10:01:03.656Z,5.50
2023-04-27T10:02:17.190Z,5.20
2023-04-27T10:03:04.647Z,4.90
2023-04-27T10:04:03.778Z,5.40
2023-04-27T10:05:03.556Z,5.20
2023-04-27T10:06:03.579Z,5.40
2023-04-27T10:07:03.571Z,5.00
2023-04-27T10:08:03.558Z,5.90
2023-04-27T10:09:03.539Z,5.50
2023-04-27T10:10:03.513Z,5.50
2023-04-27T10:11:03.483Z,5.50
2023-04-27T10:12:03.471Z,5.40
2023-04-27T10:13:03.513Z,5.70
2023-04-27T10:14:03.464Z,5.70
2023-04-27T10:15:03.444Z,4.80
2023-04-27T10:16:03.449Z,4.90
2023-04-27T10:17:03.498Z,5.30
2023-04-27T10:18:03.839Z,5.10
2023-04-27T10:19:03.411Z,5.30
2023-04-27T10:20:03.408Z,5.10
2023-04-27T10:21:03.385Z,4.70
2023-04-27T10:22:03.442Z,5.00
2023-04-27T10:23:04.108Z,5.30
2023-04-27T10:24:03.400Z,4.90
2023-04-27T10:25:03.335Z,4.60
2023-04-27T10:26:03.342Z,4.80
2023-04-27T10:27:03.265Z,4.90
2023-04-27T10:28:03.368Z,5.20
2023-04-27T10:29:03.314Z,4.90
2023-04-27T10:30:03.262Z,4.80
2023-04-27T10:31:03.307Z,5.00
2023-04-27T10:32:03.266Z,4.80
2023-04-27T10:33:03.264Z,5.20
2023-04-27T10:34:03.258Z,5.00
2023-04-27T10:35:03.289Z,4.80
2023-04-27T10:36:03.219Z,4.60
2023-04-27T10:37:03.224Z,4.80
2023-04-27T10:38:03.229Z,5.30
2023-04-27T10:39:03.192Z,5.10
2023-04-27T10:40:03.173Z,4.70
2023-04-27T10:41:03.159Z,4.50
2023-04-27T10:42:03.150Z,5.40
2023-04-27T10:43:03.146Z,4.50
2023-04-27T10:44:03.150Z,4.90
2023-04-27T10:45:03.084Z,5.90
2023-04-27T10:46:03.121Z,5.00
2023-04-27T10:47:03.088Z,4.40
2023-04-27T10:48:03.126Z,4.60
2023-04-27T10:49:03.065Z,4.40
2023-04-27T10:50:03.076Z,4.40
2023-04-27T10:51:03.019Z,4.40
2023-04-27T10:52:03.076Z,4.60
2023-04-27T10:53:03.043Z,4.70
2023-04-27T10:54:03.033Z,4.50
2023-04-27T10:55:02.975Z,4.70
2023-04-27T10:56:03.007Z,4.10
2023-04-27T10:57:02.941Z,4.50
2023-04-27T10:58:02.951Z,4.40
2023-04-27T10:59:02.896Z,4.30
2023-04-27T11:00:02.911Z,4.40
2023-04-27T11:01:02.866Z,3.90
2023-04-27T11:02:03.260Z,4.50
2023-04-27T11:03:02.932Z,4.40
2023-04-27T11:04:02.860Z,4.80
2023-04-27T11:05:02.931Z,4.90
2023-04-27T11:06:03.666Z,4.70
2023-04-27T11:07:03.581Z,4.80
2023-04-27T11:08:02.854Z,4.40
2023-04-27T11:09:02.786Z,4.40
2023-04-27T11:10:02.788Z,5.00
2023-04-27T11:11:02.747Z,4.70
2023-04-27T11:12:02.792Z,4.40
2023-04-27T11:13:02.731Z,4.50
2023-04-27T11:14:02.759Z,4.40
2023-04-27T11:15:02.710Z,3.90
2023-04-27T11:16:02.767Z,3.70
2023-04-27T11:17:02.911Z,3.70
2023-04-27T11:18:02.802Z,3.70
2023-04-27T11:19:02.671Z,3.50
2023-04-27T11:20:02.699Z,3.50
2023-04-27T11:21:02.638Z,3.70
2023-04-27T11:22:02.655Z,3.90
2023-04-27T11:23:02.614Z,3.90
2023-04-27T11:24:02.673Z,4.00
2023-04-27T11:25:02.588Z,3.80
2023-04-27T11:26:02.600Z,3.60
2023-04-27T11:27:02.569Z,4.10
2023-04-27T11:28:02.582Z,4.00
2023-04-27T11:29:02.546Z,4.10
2023-04-27T11:30:02.567Z,4.20
2023-04-27T11:31:02.576Z,3.60
2023-04-27T11:32:02.607Z,3.80
2023-04-27T11:33:02.528Z,3.90
2023-04-27T11:34:04.009Z,3.50
2023-04-27T11:35:02.500Z,3.50
2023-04-27T11:36:02.498Z,3.80
2023-04-27T11:38:02.481Z,4.00
2023-04-27T11:39:02.511Z,3.90
2023-04-27T11:40:02.453Z,3.70
2023-04-27T11:41:02.422Z,3.90
2023-04-27T11:42:02.426Z,3.50
2023-04-27T11:43:02.390Z,3.90
2023-04-27T11:44:02.400Z,4.00
2023-04-27T11:45:03.160Z,4.20
2023-04-27T11:46:02.411Z,4.20
2023-04-27T11:47:02.524Z,3.80
2023-04-27T11:48:02.402Z,4.10
2023-04-27T11:49:02.348Z,3.40
2023-04-27T11:50:02.467Z,4.30
2023-04-27T11:51:02.297Z,4.20
2023-04-27T11:52:02.364Z,4.40
2023-04-27T11:53:02.281Z,3.80
2023-04-27T11:54:02.282Z,3.90
2023-04-27T11:55:02.269Z,4.20
2023-04-27T11:56:02.288Z,4.00
2023-04-27T11:57:02.235Z,3.90
2023-04-27T11:58:02.236Z,3.50
2023-04-27T11:59:02.207Z,3.70
2023-04-27T12:00:02.245Z,3.70
2023-04-27T12:01:02.219Z,3.70
2023-04-27T12:02:02.251Z,3.60
2023-04-27T12:03:02.281Z,4.50
2023-04-27T12:04:02.633Z,3.90
2023-04-27T12:05:02.365Z,3.90
2023-04-27T12:07:02.116Z,3.70
2023-04-27T12:08:02.141Z,3.50
2023-04-27T12:09:02.112Z,3.80
2023-04-27T12:10:02.100Z,4.10
2023-04-27T12:11:02.051Z,4.00
2023-04-27T12:12:02.086Z,4.00
2023-04-27T12:13:02.043Z,3.50
2023-04-27T12:14:02.058Z,3.50
2023-04-27T12:15:02.039Z,3.90
2023-04-27T12:16:02.036Z,3.10
2023-04-27T12:17:02.094Z,3.20
2023-04-27T12:18:02.020Z,3.60
2023-04-27T12:19:01.978Z,3.30
2023-04-27T12:20:01.986Z,3.20
2023-04-27T12:21:03.531Z,3.60
2023-04-27T12:22:01.949Z,3.60
2023-04-27T12:23:01.950Z,4.00
2023-04-27T12:24:01.914Z,3.20
2023-04-27T12:25:01.958Z,3.40
2023-04-27T12:26:01.892Z,3.20
2023-04-27T12:27:01.908Z,3.40
2023-04-27T12:28:01.866Z,3.30
2023-04-27T12:29:01.911Z,3.10
2023-04-27T12:30:02.061Z,3.30
2023-04-27T12:31:01.876Z,3.50
2023-04-27T12:32:01.854Z,3.00
2023-04-27T12:33:01.860Z,3.60
2023-04-27T12:34:01.820Z,2.80
2023-04-27T12:35:01.822Z,3.30
2023-04-27T12:36:01.792Z,3.00
2023-04-27T12:37:01.789Z,3.10
2023-04-27T12:38:01.746Z,3.30
2023-04-27T12:39:01.762Z,3.20
2023-04-27T12:40:01.736Z,3.60
2023-04-27T12:41:01.752Z,3.30
2023-04-27T12:42:01.717Z,3.40
2023-04-27T12:43:01.746Z,3.20
2023-04-27T12:44:01.679Z,3.00
2023-04-27T12:45:01.704Z,3.20
2023-04-27T12:46:01.710Z,3.20
2023-04-27T12:47:01.676Z,3.80
2023-04-27T12:48:03.847Z,3.40
2023-04-27T12:49:01.649Z,3.20
2023-04-27T12:50:01.613Z,3.40
2023-04-27T12:51:01.635Z,3.60
2023-04-27T12:52:01.611Z,3.30
2023-04-27T12:53:01.612Z,3.30
2023-04-27T12:54:01.605Z,3.00
2023-04-27T12:55:01.589Z,3.30
2023-04-27T12:56:01.552Z,2.70
2023-04-27T12:57:01.754Z,2.80
2023-04-27T12:58:01.548Z,3.10
2023-04-27T12:59:01.541Z,3.00
2023-04-27T13:00:02.106Z,3.10
2023-04-27T13:01:01.525Z,3.20
2023-04-27T13:02:01.629Z,2.90
2023-04-27T13:03:01.637Z,3.00
2023-04-27T13:04:01.672Z,3.00
2023-04-27T13:05:01.569Z,2.70
2023-04-27T13:06:02.382Z,3.40
2023-04-27T13:07:01.540Z,3.70
2023-04-27T13:08:01.434Z,3.10
2023-04-27T13:09:01.449Z,2.70
2023-04-27T13:10:01.384Z,2.80
2023-04-27T13:11:01.399Z,2.70
2023-04-27T13:12:01.783Z,3.00
2023-04-27T13:13:01.377Z,2.50
2023-04-27T13:14:01.457Z,3.20
2023-04-27T13:15:01.356Z,2.50
2023-04-27T13:16:01.374Z,2.80
2023-04-27T13:17:01.333Z,3.30
2023-04-27T13:18:01.356Z,3.00
2023-04-27T13:19:01.425Z,3.00
2023-04-27T13:20:01.271Z,3.00
2023-04-27T13:21:01.291Z,2.70
2023-04-27T13:22:01.269Z,3.40
2023-04-27T13:23:01.268Z,2.70
2023-04-27T13:24:01.218Z,2.50
2023-04-27T13:25:01.249Z,2.60
2023-04-27T13:26:01.206Z,2.80
2023-04-27T13:27:01.274Z,2.70
2023-04-27T13:28:01.236Z,2.30
2023-04-27T13:29:01.211Z,2.60